Time;durP1;ratioP1;P1;durP2;ratioP2;P2;SDS_P1;SDS_P2;PMS_P1;PMS_P2;Temp;Humidity;BMP_temperature;BMP_pressure;BME280_temperature;BME280_humidity;BME280_pressure;Samples;Min_cycle;Max_cycle;Signal;HPM_P1;HPM_P2
2021/12/01 00:00:14;;;;;;;14.70;10.30;;;;;;;2.00;87.48;98357.18;88541;1272;79944;-62
2021/12/01 00:02:44;;;;;;;12.30;9.40;;;;;;;2.08;87.53;98368.46;88532;1268;83721;-60
2021/12/01 00:04:53;;;;;;;12.70;9.10;;;;;;;2.05;87.40;98371.95;88542;1275;98172;-61
2021/12/01 00:07:03;;;;;;;11.10;9.30;;;;;;;2.00;87.46;98380.77;88557;1274;87353;-60
2021/12/01 00:09:12;;;;;;;11.30;9.30;;;;;;;2.00;87.35;98388.02;88540;1272;93834;-60
2021/12/01 00:11:21;;;;;;;12.00;9.40;;;;;;;2.01;87.18;98394.96;88555;1272;77221;-61
2021/12/01 00:13:32;;;;;;;11.20;9.00;;;;;;;1.97;87.32;98406.73;88551;1275;80861;-58
2021/12/01 00:15:44;;;;;;;13.10;9.90;;;;;;;1.96;87.27;98415.66;88558;1272;96779;-60
2021/12/01 00:17:53;;;;;;;10.40;8.30;;;;;;;1.94;87.20;98426.94;88564;1267;87947;-63
2021/12/01 00:20:04;;;;;;;10.50;7.90;;;;;;;1.90;87.20;98431.70;88513;1269;93200;-62
2021/12/01 00:22:13;;;;;;;11.40;8.90;;;;;;;1.86;87.21;98447.25;88578;1269;78830;-63
2021/12/01 00:24:25;;;;;;;10.00;8.10;;;;;;;1.90;87.19;98456.17;88537;1275;79399;-61
2021/12/01 00:26:35;;;;;;;11.10;8.70;;;;;;;1.90;87.09;98463.79;88527;1268;99359;-61
2021/12/01 00:28:44;;;;;;;10.80;8.40;;;;;;;1.96;87.08;98472.71;88593;1272;86812;-61
2021/12/01 00:30:54;;;;;;;10.80;8.60;;;;;;;1.99;86.97;98483.50;88560;1272;94460;-62
2021/12/01 00:33:04;;;;;;;11.30;9.40;;;;;;;1.97;86.97;98495.14;88560;1275;77227;-61
2021/12/01 00:35:15;;;;;;;10.30;8.20;;;;;;;1.94;87.00;98504.11;88576;1275;82459;-60
2021/12/01 00:37:24;;;;;;;10.80;8.60;;;;;;;1.90;86.83;98510.92;88543;1275;98682;-60
2021/12/01 00:39:34;;;;;;;11.80;9.70;;;;;;;1.85;86.97;98517.88;88557;1272;89315;-60
2021/12/01 00:41:43;;;;;;;12.20;9.50;;;;;;;1.82;86.82;98521.96;88534;1269;95295;-61
2021/12/01 00:43:52;;;;;;;10.70;8.70;;;;;;;1.78;86.75;98528.92;88571;1275;78629;-60
2021/12/01 00:46:10;;;;;;;11.90;8.80;;;;;;;1.74;86.80;98531.55;88581;1272;81707;-61
2021/12/01 00:48:19;;;;;;;11.60;9.00;;;;;;;1.70;86.80;98541.77;88558;1272;99276;-60
2021/12/01 00:50:33;;;;;;;12.80;9.20;;;;;;;1.69;86.76;98548.91;88552;1269;87006;-61
2021/12/01 00:52:43;;;;;;;12.30;9.30;;;;;;;1.72;86.82;98554.95;88548;1272;94791;-63
2021/12/01 00:54:52;;;;;;;13.00;9.80;;;;;;;1.75;86.84;98558.48;88524;1271;80284;-63
2021/12/01 00:57:02;;;;;;;13.20;9.60;;;;;;;1.78;86.95;98565.97;88558;1272;79891;-62
2021/12/01 00:59:14;;;;;;;13.70;10.40;;;;;;;1.83;86.84;98567.61;88532;1268;97100;-63
2021/12/01 01:01:24;;;;;;;11.90;10.10;;;;;;;1.82;86.90;98573.73;88540;1275;88258;-61
2021/12/01 01:03:33;;;;;;;11.00;8.60;;;;;;;1.83;86.94;98575.59;88541;1271;93298;-62
2021/12/01 01:05:43;;;;;;;11.20;8.70;;;;;;;1.77;86.79;98582.82;88544;1272;77222;-61
2021/12/01 01:07:53;;;;;;;11.80;9.40;;;;;;;1.77;86.87;98593.08;88582;1271;81918;-62
2021/12/01 01:10:17;;;;;;;11.60;8.90;;;;;;;1.78;86.71;98601.50;88562;1275;97379;-65
2021/12/01 01:17:36;;;;;;;10.60;8.40;;;;;;;1.73;86.56;98614.16;88524;1275;81940;-63
2021/12/01 01:19:45;;;;;;;8.30;7.40;;;;;;;1.69;86.62;98618.73;88539;1268;81576;-64
2021/12/01 01:21:55;;;;;;;9.90;7.40;;;;;;;1.65;86.61;98624.65;88566;1271;96719;-60
2021/12/01 01:24:06;;;;;;;10.20;8.00;;;;;;;1.65;86.74;98638.70;88544;1262;86193;-62
2021/12/01 01:26:18;;;;;;;9.50;8.10;;;;;;;1.71;86.64;98644.59;88559;1275;95586;-62
2021/12/01 01:28:27;;;;;;;11.10;8.50;;;;;;;1.74;86.65;98652.06;88549;1272;79999;-61
2021/12/01 01:30:38;;;;;;;12.40;9.60;;;;;;;1.76;86.69;98654.25;88550;1275;80638;-61
2021/12/01 01:32:51;;;;;;;11.00;9.30;;;;;;;1.78;86.66;98658.81;88552;1275;96821;-61
2021/12/01 01:35:01;;;;;;;12.30;9.60;;;;;;;1.74;86.63;98672.05;88551;1272;88608;-61
2021/12/01 01:37:10;;;;;;;13.70;10.20;;;;;;;1.64;86.40;98673.73;88541;1269;93042;-61
2021/12/01 01:39:21;;;;;;;12.10;9.40;;;;;;;1.60;86.55;98679.33;88537;1275;79132;-61
2021/12/01 01:41:31;;;;;;;12.40;9.70;;;;;;;1.55;86.51;98685.55;88511;1272;81191;-61
2021/12/01 01:43:43;;;;;;;13.10;9.60;;;;;;;1.55;86.50;98687.73;88554;1275;97980;-61
2021/12/01 01:45:57;;;;;;;12.80;9.30;;;;;;;1.56;86.57;98687.42;88530;1272;88748;-62
2021/12/01 01:48:11;;;;;;;12.60;9.20;;;;;;;1.57;86.56;98694.09;88519;1268;94772;-61
2021/12/01 01:50:34;;;;;;;12.30;9.20;;;;;;;1.56;86.65;98696.33;88521;1275;79580;-61
2021/12/01 01:52:44;;;;;;;10.50;8.10;;;;;;;1.58;86.54;98700.05;88531;1274;83224;-63
2021/12/01 01:54:53;;;;;;;11.10;9.10;;;;;;;1.61;86.56;98701.45;88519;1269;97382;-64
2021/12/01 01:57:02;;;;;;;11.90;9.20;;;;;;;1.59;86.48;98704.13;88553;1269;88963;-65
2021/12/01 01:59:12;;;;;;;12.30;9.60;;;;;;;1.59;86.56;98709.45;88542;1268;94351;-64
2021/12/01 02:01:43;;;;;;;10.00;8.60;;;;;;;1.57;86.46;98712.68;88570;1272;78914;-61
2021/12/01 02:03:54;;;;;;;12.10;9.70;;;;;;;1.53;86.54;98723.05;88561;1271;81933;-60
2021/12/01 02:06:06;;;;;;;12.90;9.50;;;;;;;1.54;86.60;98731.67;88505;1272;97000;-62
2021/12/01 02:08:18;;;;;;;15.40;10.30;;;;;;;1.46;86.40;98734.39;88560;1269;86975;-61
2021/12/01 02:10:28;;;;;;;13.50;9.10;;;;;;;1.46;86.55;98736.76;88506;1269;95359;-61
2021/12/01 02:12:38;;;;;;;12.60;10.00;;;;;;;1.44;86.43;98736.85;88533;1273;79101;-64
2021/12/01 02:14:48;;;;;;;13.20;9.50;;;;;;;1.42;86.43;98741.59;88540;1269;82484;-63
2021/12/01 02:16:59;;;;;;;12.50;9.30;;;;;;;1.40;86.47;98755.13;88563;1274;97731;-60
2021/12/01 02:19:12;;;;;;;12.30;10.10;;;;;;;1.38;86.53;98763.29;88572;1274;89154;-62
2021/12/01 02:21:26;;;;;;;12.00;9.30;;;;;;;1.40;86.46;98771.92;88552;1275;95090;-66
2021/12/01 02:23:39;;;;;;;12.60;9.40;;;;;;;1.38;86.69;98788.20;88514;1275;78008;-63
2021/12/01 02:25:52;;;;;;;12.00;9.80;;;;;;;1.42;86.69;98797.30;88544;1272;82434;-64
2021/12/01 02:28:01;;;;;;;11.80;8.80;;;;;;;1.49;86.56;98812.57;88575;1269;99217;-64
2021/12/01 02:30:15;;;;;;;12.80;10.10;;;;;;;1.47;86.44;98822.02;88540;1272;89178;-64
2021/12/01 02:32:24;;;;;;;13.60;10.00;;;;;;;1.47;86.44;98828.98;88555;1272;94380;-63
2021/12/01 02:34:38;;;;;;;13.60;9.70;;;;;;;1.45;86.45;98829.61;88551;1275;79673;-64
2021/12/01 02:36:54;;;;;;;13.50;10.70;;;;;;;1.42;86.47;98836.63;88541;1269;82443;-61
2021/12/01 02:39:05;;;;;;;12.20;9.70;;;;;;;1.40;86.52;98842.88;88535;1269;96414;-61
2021/12/01 02:41:16;;;;;;;14.20;9.70;;;;;;;1.39;86.36;98851.46;88569;1273;88148;-63
2021/12/01 02:43:26;;;;;;;12.10;9.80;;;;;;;1.43;86.33;98863.86;88560;1272;93793;-63
2021/12/01 02:45:35;;;;;;;13.20;10.00;;;;;;;1.42;86.51;98866.83;88524;1275;81206;-63
2021/12/01 02:47:44;;;;;;;13.30;9.40;;;;;;;1.44;86.38;98869.95;88544;1271;80505;-61
2021/12/01 02:49:55;;;;;;;13.00;9.60;;;;;;;1.42;86.63;98874.58;88464;1272;98852;-60
2021/12/01 02:52:04;;;;;;;12.70;9.80;;;;;;;1.42;86.58;98880.96;88669;1272;87191;-64
2021/12/01 02:54:14;;;;;;;13.20;10.00;;;;;;;1.45;86.52;98885.05;88649;1275;95460;-64
2021/12/01 02:56:23;;;;;;;13.80;10.20;;;;;;;1.50;86.40;98891.55;88629;1266;77259;-62
2021/12/01 02:58:40;;;;;;;13.10;10.00;;;;;;;1.48;86.24;98896.42;88675;1263;80434;-61
2021/12/01 03:00:57;;;;;;;13.10;10.40;;;;;;;1.45;86.40;98898.79;88668;1273;99378;-61
2021/12/01 03:03:07;;;;;;;13.30;9.70;;;;;;;1.42;86.29;98902.11;88665;1275;86533;-61
2021/12/01 03:05:18;;;;;;;13.70;9.70;;;;;;;1.37;86.32;98910.63;88660;1269;93438;-61
2021/12/01 03:07:27;;;;;;;15.10;10.40;;;;;;;1.33;86.24;98911.92;88625;1266;79264;-62
2021/12/01 03:09:36;;;;;;;12.80;9.90;;;;;;;1.31;86.34;98914.12;88660;1266;82101;-62
2021/12/01 03:11:46;;;;;;;13.70;10.40;;;;;;;1.30;86.33;98913.50;88646;1272;97830;-63
2021/12/01 03:13:56;;;;;;;14.80;10.20;;;;;;;1.32;86.38;98914.56;88676;1274;87502;-63
2021/12/01 03:16:06;;;;;;;13.00;9.30;;;;;;;1.31;86.18;98917.12;88674;1272;94171;-63
2021/12/01 03:18:17;;;;;;;12.90;9.90;;;;;;;1.34;86.23;98918.21;88646;1269;79118;-63
2021/12/01 03:20:26;;;;;;;12.90;9.50;;;;;;;1.31;86.18;98920.17;88657;1266;82020;-63
2021/12/01 03:22:35;;;;;;;14.00;9.70;;;;;;;1.33;86.18;98922.73;88665;1269;97605;-63
2021/12/01 03:24:45;;;;;;;12.90;9.40;;;;;;;1.32;86.03;98927.73;88674;1272;86790;-63
2021/12/01 03:26:54;;;;;;;12.70;9.50;;;;;;;1.33;86.14;98932.20;88670;1266;95027;-64
2021/12/01 03:29:04;;;;;;;14.30;10.30;;;;;;;1.28;85.94;98932.17;88667;1265;79076;-62
2021/12/01 03:31:14;;;;;;;16.20;10.60;;;;;;;1.17;85.95;98930.84;88675;1272;80510;-60
2021/12/01 03:33:25;;;;;;;13.60;9.50;;;;;;;1.09;85.98;98932.66;88632;1267;97909;-62
2021/12/01 03:35:35;;;;;;;13.60;9.40;;;;;;;0.95;85.83;98935.98;88641;1269;87439;-61
2021/12/01 03:37:47;;;;;;;12.90;9.20;;;;;;;0.81;85.62;98936.73;88611;1266;95114;-61
2021/12/01 03:39:58;;;;;;;13.60;9.80;;;;;;;0.69;85.66;98943.45;88620;1269;78674;-62
2021/12/01 03:42:08;;;;;;;13.90;9.60;;;;;;;0.56;85.72;98950.34;88644;1273;80589;-64
2021/12/01 03:44:18;;;;;;;12.60;9.10;;;;;;;0.51;85.91;98953.59;88651;1275;97574;-62
2021/12/01 03:46:27;;;;;;;14.70;10.20;;;;;;;0.44;85.68;98959.47;88663;1275;86817;-63
2021/12/01 03:48:37;;;;;;;13.30;10.00;;;;;;;0.34;85.58;98963.59;88658;1269;93878;-66
2021/12/01 03:50:49;;;;;;;12.80;9.90;;;;;;;0.26;85.89;98960.34;88671;1264;77819;-63
2021/12/01 03:52:59;;;;;;;13.40;9.60;;;;;;;0.18;85.72;98962.75;88675;1275;83257;-62
2021/12/01 03:55:10;;;;;;;12.20;9.20;;;;;;;0.10;85.61;98967.29;88677;1273;98958;-62
2021/12/01 03:57:21;;;;;;;12.80;9.50;;;;;;;0.05;85.89;98973.05;88628;1266;88775;-63
2021/12/01 03:59:30;;;;;;;14.00;9.30;;;;;;;-0.06;85.60;98980.63;88657;1274;94647;-62
2021/12/01 04:01:39;;;;;;;13.80;9.50;;;;;;;-0.14;85.97;98983.92;88651;1270;78999;-61
2021/12/01 04:03:49;;;;;;;13.60;9.60;;;;;;;-0.21;85.89;98985.34;88676;1267;80838;-60
2021/12/01 04:05:58;;;;;;;12.70;9.30;;;;;;;-0.26;86.03;98979.95;88642;1272;97970;-63
2021/12/01 04:08:10;;;;;;;15.20;10.30;;;;;;;-0.31;86.11;98980.27;88657;1268;88312;-64
2021/12/01 04:10:20;;;;;;;16.10;10.40;;;;;;;-0.29;86.07;98987.29;88624;1272;94849;-66
2021/12/01 04:12:29;;;;;;;13.00;9.60;;;;;;;-0.28;86.06;98988.25;88649;1274;77578;-63
2021/12/01 04:14:39;;;;;;;14.50;9.40;;;;;;;-0.31;86.23;98987.34;88664;1266;81958;-62
2021/12/01 04:16:52;;;;;;;13.50;9.50;;;;;;;-0.33;86.19;98992.70;88653;1273;98511;-62
2021/12/01 04:19:01;;;;;;;14.60;10.00;;;;;;;-0.37;86.25;98992.92;88690;1266;87476;-64
2021/12/01 04:21:10;;;;;;;16.00;10.40;;;;;;;-0.42;86.30;98997.83;88655;1266;94383;-63
2021/12/01 04:23:20;;;;;;;16.50;11.10;;;;;;;-0.46;86.07;99003.44;88652;1266;80319;-62
2021/12/01 04:25:29;;;;;;;15.30;10.30;;;;;;;-0.54;86.32;99009.11;88636;1275;79939;-63
2021/12/01 04:27:39;;;;;;;16.90;10.90;;;;;;;-0.59;86.10;99011.05;88697;1265;99080;-68
2021/12/01 04:29:49;;;;;;;15.00;10.00;;;;;;;-0.68;86.13;99014.09;88652;1274;87509;-68
2021/12/01 04:32:02;;;;;;;14.80;10.00;;;;;;;-0.74;86.24;99022.12;88643;1273;95371;-61
2021/12/01 04:34:12;;;;;;;14.60;10.20;;;;;;;-0.76;86.52;99027.90;88625;1271;78835;-60
2021/12/01 04:36:26;;;;;;;13.90;9.30;;;;;;;-0.78;86.47;99028.12;88690;1272;81069;-66
2021/12/01 04:38:35;;;;;;;15.10;9.80;;;;;;;-0.80;86.33;99027.66;88643;1275;97572;-67
2021/12/01 04:40:45;;;;;;;13.10;9.10;;;;;;;-0.83;86.60;99028.09;88619;1265;87409;-67
2021/12/01 04:42:55;;;;;;;15.50;9.10;;;;;;;-0.81;86.46;99029.65;88640;1269;95492;-66
2021/12/01 04:45:08;;;;;;;15.60;10.20;;;;;;;-0.78;86.43;99034.15;88681;1272;77657;-66
2021/12/01 04:47:26;;;;;;;20.70;11.00;;;;;;;-0.78;86.61;99036.66;88695;1265;80426;-67
2021/12/01 04:49:37;;;;;;;26.20;13.20;;;;;;;-0.81;86.32;99044.71;88648;1272;99236;-67
2021/12/01 04:51:51;;;;;;;20.60;12.00;;;;;;;-0.83;86.57;99046.32;88657;1273;88000;-61
2021/12/01 04:54:00;;;;;;;20.30;12.20;;;;;;;-0.88;86.51;99048.39;87986;1266;837418;-61
2021/12/01 04:56:12;;;;;;;18.80;11.90;;;;;;;-0.94;86.43;99049.20;88635;1266;79336;-70
2021/12/01 04:58:25;;;;;;;18.60;11.40;;;;;;;-1.01;86.30;99046.13;88613;1271;81886;-67
2021/12/01 05:00:36;;;;;;;19.70;11.30;;;;;;;-1.04;86.39;99048.73;88664;1273;97085;-68
2021/12/01 05:02:46;;;;;;;20.50;11.10;;;;;;;-1.03;86.36;99051.15;88685;1275;88666;-60
2021/12/01 05:04:55;;;;;;;19.60;11.00;;;;;;;-1.03;86.22;99054.68;88669;1273;95609;-61
2021/12/01 05:07:05;;;;;;;19.80;11.50;;;;;;;-1.07;86.48;99060.38;88683;1266;77159;-67
2021/12/01 05:09:15;;;;;;;17.00;10.40;;;;;;;-1.06;86.54;99055.54;88662;1272;79279;-68
2021/12/01 05:11:25;;;;;;;18.50;10.10;;;;;;;-1.06;86.56;99058.14;88664;1266;99137;-59
2021/12/01 05:13:34;;;;;;;15.70;10.00;;;;;;;-1.09;86.54;99060.92;88681;1272;87929;-61
2021/12/01 05:15:43;;;;;;;15.80;10.80;;;;;;;-1.13;86.54;99063.79;88645;1269;93935;-59
2021/12/01 05:17:53;;;;;;;18.20;10.20;;;;;;;-1.15;86.69;99065.18;88662;1265;77336;-67
2021/12/01 05:20:05;;;;;;;17.00;10.70;;;;;;;-1.15;86.76;99066.08;88641;1269;80850;-66
2021/12/01 05:22:15;;;;;;;17.40;10.60;;;;;;;-1.16;86.67;99065.80;88630;1266;97686;-67
2021/12/01 05:24:24;;;;;;;16.70;10.50;;;;;;;-1.17;86.38;99072.11;88637;1269;87384;-66
2021/12/01 05:26:33;;;;;;;17.70;10.70;;;;;;;-1.22;86.70;99066.54;88640;1272;95424;-60
2021/12/01 05:28:43;;;;;;;14.90;10.20;;;;;;;-1.23;86.71;99069.99;88661;1266;80472;-60
2021/12/01 05:30:53;;;;;;;15.90;10.70;;;;;;;-1.21;86.86;99072.34;88640;1266;80491;-61
2021/12/01 05:33:06;;;;;;;13.70;10.00;;;;;;;-1.17;86.65;99072.14;88623;1266;99503;-60
2021/12/01 05:35:15;;;;;;;13.90;9.80;;;;;;;-1.16;86.82;99070.77;88609;1272;88602;-62
2021/12/01 05:37:25;;;;;;;13.60;9.60;;;;;;;-1.10;86.89;99070.17;88652;1266;95255;-66
2021/12/01 05:39:37;;;;;;;15.00;10.30;;;;;;;-0.99;87.07;99068.05;88653;1266;78782;-66
2021/12/01 05:41:47;;;;;;;16.20;10.40;;;;;;;-0.94;87.01;99067.85;88656;1272;81271;-62
2021/12/01 05:43:57;;;;;;;16.80;10.90;;;;;;;-0.87;87.15;99074.58;88644;1273;97768;-60
2021/12/01 05:46:07;;;;;;;15.30;10.70;;;;;;;-0.78;87.18;99076.77;88683;1266;87258;-66
2021/12/01 05:48:18;;;;;;;15.80;10.20;;;;;;;-0.74;86.99;99071.20;88590;1266;94936;-67
2021/12/01 05:50:27;;;;;;;16.90;11.60;;;;;;;-0.69;87.24;99078.98;88623;1272;79104;-66
2021/12/01 05:52:36;;;;;;;15.80;11.10;;;;;;;-0.64;87.19;99079.63;88673;1269;81788;-66
2021/12/01 05:54:50;;;;;;;16.80;11.20;;;;;;;-0.60;87.10;99081.98;88651;1275;97412;-69
2021/12/01 05:57:00;;;;;;;16.70;11.40;;;;;;;-0.54;87.21;99085.52;88630;1266;86685;-69
2021/12/01 05:59:09;;;;;;;15.90;10.80;;;;;;;-0.50;87.11;99090.45;88636;1272;95486;-68
2021/12/01 06:01:19;;;;;;;16.10;11.10;;;;;;;-0.45;87.31;99093.42;88659;1265;78522;-62
2021/12/01 06:03:28;;;;;;;16.90;10.90;;;;;;;-0.44;87.33;99102.77;88648;1273;84154;-61
2021/12/01 06:05:43;;;;;;;17.40;11.80;;;;;;;-0.43;87.05;99101.40;88668;1266;96767;-62
2021/12/01 06:07:52;;;;;;;16.00;10.40;;;;;;;-0.42;87.32;99102.15;88678;1269;88905;-62
2021/12/01 06:10:02;;;;;;;16.00;11.30;;;;;;;-0.36;87.46;99095.92;88633;1271;92787;-61
2021/12/01 06:12:14;;;;;;;17.50;11.50;;;;;;;-0.34;86.97;99093.16;88643;1266;77680;-64
2021/12/01 06:14:24;;;;;;;15.90;10.90;;;;;;;-0.35;87.27;99088.52;88550;1269;82253;-63
2021/12/01 06:16:39;;;;;;;18.00;12.00;;;;;;;-0.39;86.94;99088.61;88656;1263;98413;-63
2021/12/01 06:18:51;;;;;;;16.40;11.70;;;;;;;-0.47;87.17;99089.96;88636;1266;87493;-64
2021/12/01 06:21:07;;;;;;;15.40;11.40;;;;;;;-0.50;86.94;99095.37;88632;1273;95282;-60
2021/12/01 06:23:19;;;;;;;17.10;11.50;;;;;;;-0.49;86.90;99097.57;88627;1268;79887;-60
2021/12/01 06:25:31;;;;;;;17.10;12.20;;;;;;;-0.43;87.00;99097.16;88665;1268;81961;-60
2021/12/01 06:27:42;;;;;;;15.30;11.10;;;;;;;-0.35;87.13;99101.44;88644;1266;98196;-65
2021/12/01 06:29:51;;;;;;;15.50;11.10;;;;;;;-0.30;87.10;99099.70;88666;1265;88135;-68
2021/12/01 06:32:02;;;;;;;16.90;10.70;;;;;;;-0.24;87.02;99101.23;88627;1269;94277;-60
2021/12/01 06:34:11;;;;;;;16.10;11.60;;;;;;;-0.22;87.13;99099.05;88673;1265;77346;-60
2021/12/01 06:36:21;;;;;;;16.90;11.20;;;;;;;-0.16;87.21;99103.64;88660;1266;81858;-68
2021/12/01 06:38:30;;;;;;;18.10;12.40;;;;;;;-0.10;87.20;99100.34;88670;1266;98596;-69
2021/12/01 06:40:39;;;;;;;16.70;11.70;;;;;;;-0.10;87.20;99100.65;88666;1269;86643;-70
2021/12/01 06:42:48;;;;;;;17.30;11.80;;;;;;;-0.13;87.10;99099.08;88647;1262;93084;-61
2021/12/01 06:44:58;;;;;;;20.60;13.40;;;;;;;-0.15;87.06;99104.35;88632;1265;77196;-62
2021/12/01 06:47:11;;;;;;;19.30;13.30;;;;;;;-0.15;86.89;99110.41;88665;1270;81086;-62
2021/12/01 06:49:20;;;;;;;20.30;13.20;;;;;;;-0.17;87.03;99114.84;88662;1266;97227;-62
2021/12/01 06:51:30;;;;;;;22.10;13.50;;;;;;;-0.15;86.94;99120.52;88673;1266;88407;-69
2021/12/01 06:53:43;;;;;;;22.10;14.20;;;;;;;-0.10;86.97;99120.64;88649;1266;95071;-69
2021/12/01 06:55:53;;;;;;;25.30;13.70;;;;;;;-0.03;86.99;99125.11;88646;1265;79107;-62
2021/12/01 06:58:02;;;;;;;20.80;13.90;;;;;;;-0.01;87.20;99128.25;88654;1266;82224;-62
2021/12/01 07:00:18;;;;;;;20.80;14.40;;;;;;;0.09;87.31;99131.03;88657;1269;98986;-60
2021/12/01 07:02:28;;;;;;;22.00;14.20;;;;;;;0.17;86.99;99130.32;88651;1266;88391;-61
2021/12/01 07:04:37;;;;;;;23.30;15.20;;;;;;;0.23;87.37;99130.56;88676;1269;93865;-62
2021/12/01 07:06:47;;;;;;;22.40;14.80;;;;;;;0.28;87.21;99122.63;88635;1265;77428;-61
2021/12/01 07:08:59;;;;;;;22.10;14.20;;;;;;;0.33;87.17;99124.59;88657;1266;80533;-59
2021/12/01 07:11:09;;;;;;;21.80;14.40;;;;;;;0.34;87.14;99127.51;88653;1266;96532;-68
2021/12/01 07:13:21;;;;;;;19.30;13.80;;;;;;;0.33;87.06;99133.45;88678;1269;86794;-68
2021/12/01 07:15:31;;;;;;;19.80;13.00;;;;;;;0.35;87.07;99130.71;88626;1266;94443;-68
2021/12/01 07:17:41;;;;;;;21.10;14.90;;;;;;;0.36;86.80;99134.20;88688;1266;79000;-62
2021/12/01 07:19:50;;;;;;;23.70;14.70;;;;;;;0.38;87.05;99135.08;88640;1271;83165;-62
2021/12/01 07:21:59;;;;;;;23.60;14.80;;;;;;;0.41;86.97;99144.34;88684;1273;99169;-62
2021/12/01 07:24:09;;;;;;;21.70;13.90;;;;;;;0.41;87.17;99148.70;88628;1269;87690;-60
2021/12/01 07:26:18;;;;;;;22.20;14.70;;;;;;;0.51;87.00;99145.77;88658;1266;94766;-67
2021/12/01 07:28:31;;;;;;;19.60;14.60;;;;;;;0.60;86.97;99145.74;88648;1266;77517;-68
2021/12/01 07:30:40;;;;;;;20.30;13.30;;;;;;;0.63;86.90;99143.27;88656;1272;82904;-69
2021/12/01 07:32:53;;;;;;;20.60;14.40;;;;;;;0.67;87.08;99137.62;88652;1269;98327;-61
2021/12/01 07:35:02;;;;;;;23.90;15.90;;;;;;;0.67;86.94;99134.06;88663;1265;87562;-62
2021/12/01 07:37:12;;;;;;;21.60;15.90;;;;;;;0.68;86.98;99133.08;88656;1266;93297;-61
2021/12/01 07:39:22;;;;;;;21.50;14.60;;;;;;;0.70;86.82;99129.16;88640;1265;80639;-62
2021/12/01 07:41:31;;;;;;;19.40;14.20;;;;;;;0.69;86.91;99127.96;88634;1266;82419;-63
2021/12/01 07:43:41;;;;;;;20.10;13.90;;;;;;;0.67;86.68;99126.65;88625;1275;97090;-67
2021/12/01 07:45:53;;;;;;;20.80;14.50;;;;;;;0.61;86.71;99131.77;88669;1265;89416;-65
2021/12/01 07:48:03;;;;;;;18.70;12.80;;;;;;;0.62;86.70;99137.05;88631;1270;95478;-62
2021/12/01 07:50:14;;;;;;;20.40;14.50;;;;;;;0.68;86.65;99137.86;88621;1273;80830;-60
2021/12/01 07:52:24;;;;;;;19.20;13.60;;;;;;;0.79;86.64;99142.59;88661;1266;81656;-66
2021/12/01 07:54:33;;;;;;;18.80;14.90;;;;;;;0.88;86.71;99141.75;88654;1266;98673;-67
2021/12/01 07:56:42;;;;;;;21.10;15.40;;;;;;;0.94;86.75;99140.42;88692;1270;88148;-62
2021/12/01 07:58:54;;;;;;;22.70;15.80;;;;;;;1.03;86.66;99139.11;88635;1266;95274;-61
2021/12/01 08:01:03;;;;;;;21.70;15.90;;;;;;;1.06;86.61;99135.41;88653;1265;78234;-69
2021/12/01 08:03:13;;;;;;;22.80;14.80;;;;;;;1.12;86.73;99137.24;88643;1266;81753;-68
2021/12/01 08:05:22;;;;;;;21.40;15.00;;;;;;;1.13;86.48;99137.64;88635;1273;98817;-67
2021/12/01 08:07:35;;;;;;;22.70;15.40;;;;;;;1.17;86.52;99134.43;88662;1266;88596;-67
2021/12/01 08:09:47;;;;;;;20.70;14.60;;;;;;;1.20;86.53;99129.32;88656;1272;92976;-68
2021/12/01 08:11:57;;;;;;;19.90;13.80;;;;;;;1.27;86.55;99125.95;88654;1268;80074;-67
2021/12/01 08:14:10;;;;;;;20.20;13.30;;;;;;;1.40;86.54;99129.30;88651;1269;81753;-68
2021/12/01 08:16:19;;;;;;;17.30;13.00;;;;;;;1.55;86.63;99121.28;88647;1273;97447;-68
2021/12/01 08:18:29;;;;;;;19.60;13.60;;;;;;;1.68;86.58;99117.91;88648;1268;87532;-67
2021/12/01 08:20:39;;;;;;;19.70;14.70;;;;;;;1.95;86.35;99111.33;88643;1266;94888;-68
2021/12/01 08:22:49;;;;;;;18.10;14.60;;;;;;;2.34;85.98;99106.04;88640;1265;77189;-68
2021/12/01 08:24:59;;;;;;;20.00;15.00;;;;;;;2.84;85.79;99107.32;88631;1270;81407;-66
2021/12/01 08:27:09;;;;;;;21.10;15.90;;;;;;;3.76;85.46;99103.48;88633;1272;98284;-74
2021/12/01 08:29:18;;;;;;;19.00;15.60;;;;;;;4.38;84.86;99101.16;88670;1266;88611;-63
2021/12/01 08:31:28;;;;;;;19.80;15.30;;;;;;;4.90;83.77;99101.09;88664;1266;94644;-63
2021/12/01 08:33:37;;;;;;;20.70;15.50;;;;;;;5.23;83.34;99108.44;88631;1266;77380;-66
2021/12/01 08:35:46;;;;;;;20.60;15.70;;;;;;;5.37;82.59;99111.73;88650;1266;82372;-64
2021/12/01 08:37:57;;;;;;;25.80;18.70;;;;;;;5.39;82.38;99114.16;88657;1266;97883;-64
2021/12/01 08:40:09;;;;;;;23.30;17.70;;;;;;;5.09;82.11;99111.06;88630;1265;87309;-63
2021/12/01 08:42:20;;;;;;;23.30;17.60;;;;;;;4.75;82.14;99103.30;88676;1266;94858;-63
2021/12/01 08:44:29;;;;;;;19.50;16.00;;;;;;;4.65;82.06;99099.90;88542;1269;79809;-65
2021/12/01 08:46:39;;;;;;;21.40;16.60;;;;;;;4.64;82.02;99100.46;88572;1269;80516;-62
2021/12/01 08:48:51;;;;;;;28.50;20.20;;;;;;;4.53;82.03;99098.15;88641;1266;98156;-63
2021/12/01 08:51:03;;;;;;;29.60;19.10;;;;;;;4.48;81.98;99096.60;88640;1265;85588;-60
2021/12/01 08:53:12;;;;;;;22.40;16.80;;;;;;;4.26;81.80;99095.91;88637;1266;92818;-61
2021/12/01 08:55:23;;;;;;;24.90;17.70;;;;;;;4.08;81.57;99095.48;88645;1265;79126;-61
2021/12/01 08:57:32;;;;;;;28.80;21.50;;;;;;;3.97;81.71;99087.70;88677;1265;83135;-60
2021/12/01 08:59:44;;;;;;;24.00;18.50;;;;;;;3.80;81.96;99087.36;88683;1266;97061;-63
2021/12/01 09:01:54;;;;;;;22.40;16.90;;;;;;;3.86;82.06;99085.95;88634;1265;87156;-64
2021/12/01 09:04:03;;;;;;;22.50;16.70;;;;;;;3.89;82.24;99081.52;88646;1266;93125;-65
2021/12/01 09:06:13;;;;;;;23.60;18.00;;;;;;;3.89;81.90;99079.02;88676;1270;76996;-64
2021/12/01 09:08:26;;;;;;;22.40;17.40;;;;;;;3.78;82.13;99075.02;88647;1266;82279;-63
2021/12/01 09:10:36;;;;;;;22.00;16.60;;;;;;;3.74;82.10;99074.55;88642;1266;99211;-63
2021/12/01 09:12:49;;;;;;;21.60;15.90;;;;;;;3.75;82.05;99076.98;88693;1264;87376;-60
2021/12/01 09:14:59;;;;;;;21.10;15.70;;;;;;;3.70;82.11;99071.45;88642;1272;95579;-63
2021/12/01 09:17:10;;;;;;;21.30;15.70;;;;;;;3.68;82.06;99066.79;88634;1272;81747;-61
2021/12/01 09:19:19;;;;;;;19.30;15.30;;;;;;;3.62;82.28;99066.73;88670;1266;81359;-61
2021/12/01 09:21:29;;;;;;;31.60;21.10;;;;;;;3.57;82.46;99069.08;88664;1266;97368;-60
2021/12/01 09:23:38;;;;;;;25.30;17.40;;;;;;;3.57;82.28;99068.90;88638;1266;86962;-60
2021/12/01 09:25:48;;;;;;;28.20;20.10;;;;;;;3.52;82.38;99067.83;88676;1266;93639;-61
2021/12/01 09:27:58;;;;;;;24.60;17.50;;;;;;;3.49;82.49;99067.19;88678;1272;76188;-63
2021/12/01 09:30:10;;;;;;;22.90;18.70;;;;;;;3.47;82.46;99071.30;88659;1266;79717;-63
2021/12/01 09:32:19;;;;;;;24.50;18.30;;;;;;;3.36;82.47;99068.91;88695;1266;98535;-62
2021/12/01 09:34:32;;;;;;;23.30;17.40;;;;;;;3.27;82.60;99063.23;88677;1265;85895;-62
2021/12/01 09:36:42;;;;;;;24.60;17.60;;;;;;;3.26;82.56;99061.83;88635;1266;93464;-61
2021/12/01 09:38:52;;;;;;;21.80;16.70;;;;;;;3.26;82.50;99056.15;88638;1266;77350;-62
2021/12/01 09:41:01;;;;;;;26.10;17.60;;;;;;;3.23;82.69;99052.60;88718;1269;82378;-62
2021/12/01 09:43:11;;;;;;;24.90;17.40;;;;;;;3.22;82.72;99046.80;88634;1273;98438;-63
2021/12/01 09:45:25;;;;;;;27.10;17.00;;;;;;;3.14;82.75;99045.81;88659;1266;87219;-62
2021/12/01 09:47:35;;;;;;;24.60;16.70;;;;;;;3.12;82.86;99045.76;88620;1273;93879;-63
2021/12/01 09:49:45;;;;;;;22.90;17.40;;;;;;;3.11;82.95;99044.93;88659;1266;79989;-62
2021/12/01 09:51:55;;;;;;;22.20;16.00;;;;;;;3.13;83.02;99047.80;88672;1259;79705;-62
2021/12/01 09:54:05;;;;;;;22.50;15.90;;;;;;;3.07;82.96;99043.05;88640;1270;97385;-61
2021/12/01 09:56:15;;;;;;;24.40;17.40;;;;;;;3.16;83.11;99038.27;88687;1266;89361;-59
2021/12/01 09:58:30;;;;;;;22.70;16.70;;;;;;;3.31;83.29;99030.97;88633;1273;94914;-61
2021/12/01 10:00:43;;;;;;;20.90;15.80;;;;;;;3.47;83.22;99026.33;88654;1266;79291;-61
2021/12/01 10:02:53;;;;;;;21.40;16.10;;;;;;;3.60;83.32;99023.13;88650;1265;80402;-60
2021/12/01 10:05:03;;;;;;;23.60;16.80;;;;;;;3.72;83.16;99017.13;88647;1273;97143;-60
2021/12/01 10:07:22;;;;;;;21.50;16.20;;;;;;;3.78;83.15;99013.81;88648;1265;88568;-60
2021/12/01 10:09:45;;;;;;;23.90;16.30;;;;;;;3.68;83.00;99011.18;88647;1265;94316;-61
2021/12/01 10:11:54;;;;;;;22.00;16.30;;;;;;;3.61;83.12;99004.33;88652;1266;79857;-61
2021/12/01 10:14:06;;;;;;;23.20;16.70;;;;;;;3.62;83.12;99002.02;88666;1269;82110;-64